Time;durP1;ratioP1;P1;durP2;ratioP2;P2;SDS_P1;SDS_P2;PMS_P1;PMS_P2;Temp;Humidity;BMP_temperature;BMP_pressure;BME280_temperature;BME280_humidity;BME280_pressure;Samples;Min_cycle;Max_cycle;Signal;HPM_P1;HPM_P2
2022/08/24 00:00:34;;;;;;;4.95;3.58;;;;;;;22.68;55.64;100401.03;5074179;28;20059;-66
2022/08/24 00:03:03;;;;;;;6.25;3.38;;;;;;;22.65;56.03;100401.81;5080452;28;20045;-66
2022/08/24 00:05:31;;;;;;;6.13;4.13;;;;;;;22.63;56.15;100393.69;5074057;28;20493;-66
2022/08/24 00:07:58;;;;;;;5.35;3.80;;;;;;;22.61;56.19;100401.78;5074047;28;20052;-66
2022/08/24 00:10:26;;;;;;;6.50;4.32;;;;;;;22.60;56.50;100405.03;5077127;28;20047;-66
2022/08/24 00:12:53;;;;;;;4.20;3.80;;;;;;;22.61;56.40;100401.78;5089002;28;20052;-66
2022/08/24 00:15:21;;;;;;;4.93;3.67;;;;;;;22.63;56.62;100399.34;5074231;28;20067;-66
2022/08/24 00:17:48;;;;;;;5.93;4.22;;;;;;;22.63;56.57;100398.56;5073632;28;20176;-66
2022/08/24 00:20:20;;;;;;;6.00;4.07;;;;;;;22.62;56.61;100394.09;5075216;28;20044;-66
2022/08/24 00:22:47;;;;;;;4.90;4.07;;;;;;;22.60;56.47;100394.50;5090772;28;20055;-66
2022/08/24 00:25:16;;;;;;;5.60;3.92;;;;;;;22.61;56.36;100396.09;5073578;28;20405;-66
2022/08/24 00:27:43;;;;;;;4.50;3.78;;;;;;;22.60;56.77;100393.69;5073633;28;20056;-65
2022/08/24 00:30:14;;;;;;;4.65;3.50;;;;;;;22.61;56.51;100404.63;5073849;28;20060;-66
2022/08/24 00:32:42;;;;;;;5.90;3.88;;;;;;;22.60;56.72;100402.19;5073983;28;20048;-63
2022/08/24 00:35:10;;;;;;;5.40;4.20;;;;;;;22.56;56.53;100402.19;5080801;28;20055;-66
2022/08/24 00:37:40;;;;;;;4.70;4.03;;;;;;;22.51;56.85;100399.72;5094169;28;20056;-66
2022/08/24 00:40:20;;;;;;;5.43;3.53;;;;;;;22.50;56.87;100404.56;5077033;28;20057;-66
2022/08/24 00:42:49;;;;;;;4.55;3.78;;;;;;;22.52;57.08;100394.84;5073027;28;20547;-66
2022/08/24 00:45:17;;;;;;;6.25;4.30;;;;;;;22.54;56.86;100395.28;5073179;28;20048;-66
2022/08/24 00:47:50;;;;;;;5.97;3.85;;;;;;;22.51;56.83;100396.88;5073260;28;20052;-66
2022/08/24 00:50:22;;;;;;;5.47;3.78;;;;;;;22.49;56.79;100390.78;5085572;28;20059;-66
2022/08/24 00:52:59;;;;;;;4.75;4.20;;;;;;;22.44;57.00;100396.84;5093604;28;20051;-66
2022/08/24 00:55:30;;;;;;;5.40;3.80;;;;;;;22.36;57.63;100395.16;5077133;28;20442;-65
2022/08/24 00:58:02;;;;;;;6.03;4.18;;;;;;;22.29;57.49;100393.13;5057200;28;20044;-66
2022/08/24 01:00:33;;;;;;;5.43;3.85;;;;;;;22.22;58.07;100402.38;5073152;28;20048;-66
2022/08/24 01:03:05;;;;;;;7.35;4.10;;;;;;;22.14;58.44;100397.06;5072848;28;20061;-66
2022/08/24 01:05:35;;;;;;;5.57;4.30;;;;;;;22.08;58.48;100394.56;5072736;28;20063;-66
2022/08/24 01:08:07;;;;;;;6.05;4.22;;;;;;;22.07;58.36;100398.63;5072177;28;20059;-66
2022/08/24 01:10:38;;;;;;;7.75;4.05;;;;;;;22.03;58.68;100402.66;5072748;28;20516;-66
2022/08/24 01:13:09;;;;;;;6.18;3.92;;;;;;;21.97;58.60;100401.41;5069461;28;20049;-66
2022/08/24 01:15:41;;;;;;;6.80;4.00;;;;;;;21.93;58.61;100400.56;5062896;28;20052;-66
2022/08/24 01:21:00;;;;;;;;;;;;;;;21.72;59.41;100404.03;5073344;28;20067;-66
2022/08/24 01:23:39;;;;;;;6.15;4.40;;;;;;;21.64;59.35;100406.78;5072659;28;19927;-66
2022/08/24 01:26:10;;;;;;;5.70;4.22;;;;;;;21.61;59.54;100412.44;5072451;28;20053;-66
2022/08/24 01:28:39;;;;;;;5.10;4.65;;;;;;;21.54;59.61;100401.03;5079616;28;20052;-66
2022/08/24 01:31:07;;;;;;;5.75;4.20;;;;;;;21.49;59.86;100405.03;5081951;28;20138;-66
2022/08/24 01:33:35;;;;;;;6.60;4.50;;;;;;;21.44;60.14;100400.56;5072814;28;20523;-66
2022/08/24 01:36:09;;;;;;;6.07;4.03;;;;;;;21.37;60.31;100397.59;5071549;28;20139;-66
2022/08/24 01:38:38;;;;;;;5.45;3.95;;;;;;;21.31;60.59;100399.16;5072705;28;20059;-66
2022/08/24 01:41:05;;;;;;;5.03;4.07;;;;;;;21.27;60.47;100401.16;5072139;28;20473;-66
2022/08/24 01:43:33;;;;;;;6.03;4.07;;;;;;;21.25;60.50;100400.72;5077899;28;20161;-64
2022/08/24 01:46:04;;;;;;;6.20;5.20;;;;;;;21.20;60.75;100404.72;5086484;28;20393;-66
2022/08/24 01:48:31;;;;;;;6.30;4.25;;;;;;;21.13;60.82;100398.19;5072222;28;20063;-66
2022/08/24 01:50:58;;;;;;;6.03;4.53;;;;;;;21.06;60.87;100399.75;5072143;28;20048;-66
2022/08/24 01:53:26;;;;;;;5.38;4.53;;;;;;;20.99;60.97;100398.84;5072619;28;20053;-66
2022/08/24 01:55:55;;;;;;;7.43;4.72;;;;;;;20.92;61.26;100399.56;5075066;28;20051;-66
2022/08/24 01:58:23;;;;;;;7.45;4.55;;;;;;;20.86;61.51;100401.13;5072230;28;20500;-66
2022/08/24 02:00:50;;;;;;;5.03;4.50;;;;;;;20.81;61.61;100407.13;5085002;28;20405;-66
2022/08/24 02:03:19;;;;;;;7.78;4.78;;;;;;;20.81;61.47;100405.13;5092364;28;20058;-66
2022/08/24 02:05:47;;;;;;;5.70;4.80;;;;;;;20.77;61.36;100409.13;5083443;28;20053;-66
2022/08/24 02:08:14;;;;;;;7.00;4.85;;;;;;;20.72;61.48;100406.59;5072326;28;20048;-66
2022/08/24 02:10:42;;;;;;;5.18;4.57;;;;;;;20.65;61.88;100405.31;5082674;28;20059;-66
2022/08/24 02:13:10;;;;;;;6.57;4.85;;;;;;;20.56;62.06;100401.94;5076130;28;20409;-66
2022/08/24 02:15:39;;;;;;;5.68;5.07;;;;;;;20.48;62.58;100409.50;5072532;28;20055;-66
2022/08/24 02:18:08;;;;;;;7.10;4.97;;;;;;;20.43;62.54;100397.72;5072204;28;20409;-67
2022/08/24 02:20:37;;;;;;;6.68;5.40;;;;;;;20.41;62.58;100402.94;5087908;28;20125;-66
2022/08/24 02:23:05;;;;;;;8.40;5.28;;;;;;;20.38;62.91;100412.19;5076929;28;20049;-66
2022/08/24 02:25:33;;;;;;;6.80;4.95;;;;;;;20.32;63.04;100402.41;5071851;28;20049;-66
2022/08/24 02:28:01;;;;;;;7.53;4.88;;;;;;;20.25;63.21;100412.44;5071349;28;20049;-66
2022/08/24 02:30:32;;;;;;;8.18;4.78;;;;;;;20.22;63.13;100409.53;5070588;28;20060;-66
2022/08/24 02:33:00;;;;;;;6.82;4.70;;;;;;;20.21;63.27;100416.41;5082231;28;20052;-66
2022/08/24 02:35:31;;;;;;;7.13;4.82;;;;;;;20.18;63.30;100417.16;5088753;28;20048;-66
2022/08/24 02:38:01;;;;;;;5.38;4.72;;;;;;;20.13;63.48;100420.31;5083839;28;20053;-66
2022/08/24 02:40:30;;;;;;;6.07;4.97;;;;;;;20.08;63.45;100415.81;5071249;28;20051;-66
2022/08/24 02:42:57;;;;;;;6.43;5.03;;;;;;;20.05;63.48;100410.91;5071282;28;20053;-66
2022/08/24 02:45:26;;;;;;;7.07;5.15;;;;;;;20.00;63.79;100420.53;5071492;28;20056;-66
2022/08/24 02:47:55;;;;;;;5.85;5.05;;;;;;;19.98;63.72;100420.09;5071601;28;20053;-66
2022/08/24 02:50:22;;;;;;;5.45;4.88;;;;;;;19.95;63.65;100418.03;5075300;28;20049;-66
2022/08/24 02:52:50;;;;;;;7.75;5.05;;;;;;;19.91;63.61;100422.81;5075454;28;20056;-66
2022/08/24 02:55:18;;;;;;;5.63;4.88;;;;;;;19.88;63.83;100423.56;5074483;28;20056;-66
2022/08/24 02:57:46;;;;;;;5.68;5.00;;;;;;;19.85;63.73;100418.69;5095852;28;20055;-66
2022/08/24 03:00:16;;;;;;;7.43;5.78;;;;;;;19.82;64.01;100417.44;5075258;28;20063;-66
2022/08/24 03:02:44;;;;;;;;;;;;;;;19.66;64.06;100413.91;5075842;28;20060;-66
2022/08/24 03:05:14;;;;;;;5.90;5.30;;;;;;;19.63;64.53;100423.13;5081444;28;20395;-66
2022/08/24 03:07:42;;;;;;;7.13;5.00;;;;;;;19.61;64.19;100417.03;5095831;28;20059;-67
2022/08/24 03:10:10;;;;;;;5.70;5.00;;;;;;;19.60;64.40;100424.69;5077964;28;20515;-66
2022/08/24 03:12:38;;;;;;;7.25;5.53;;;;;;;19.60;64.64;100421.06;5075442;28;20059;-66
2022/08/24 03:15:10;;;;;;;5.50;4.95;;;;;;;19.59;64.27;100419.41;5074451;28;20048;-66
2022/08/24 03:17:39;;;;;;;6.38;4.90;;;;;;;19.54;64.77;100434.69;5075616;28;20063;-66
2022/08/24 03:20:10;;;;;;;6.95;5.45;;;;;;;19.50;64.89;100424.50;5081934;28;20051;-66
2022/08/24 03:22:40;;;;;;;5.85;5.20;;;;;;;19.46;64.66;100424.44;5095589;28;20056;-66
2022/08/24 03:25:08;;;;;;;8.65;5.45;;;;;;;19.42;64.84;100421.56;5082345;28;20052;-66
2022/08/24 03:27:36;;;;;;;6.63;5.72;;;;;;;19.39;65.17;100415.84;5075400;28;20048;-66
2022/08/24 03:30:05;;;;;;;7.68;6.30;;;;;;;19.40;65.37;100417.47;5074626;28;20429;-66
2022/08/24 03:32:32;;;;;;;8.05;5.30;;;;;;;19.37;65.18;100421.06;5074773;28;20052;-66
2022/08/24 03:35:00;;;;;;;7.47;5.70;;;;;;;19.34;65.42;100416.97;5081838;28;20386;-66
2022/08/24 03:37:28;;;;;;;6.32;5.63;;;;;;;19.34;65.59;100419.81;5075101;28;20052;-66
2022/08/24 03:39:57;;;;;;;8.15;6.40;;;;;;;19.33;65.44;100417.34;5074352;28;20052;-67
2022/08/24 03:42:24;;;;;;;7.53;6.57;;;;;;;19.20;65.62;100420.34;5075392;28;20063;-66
2022/08/24 03:44:51;;;;;;;6.65;5.30;;;;;;;19.17;65.40;100421.09;5074317;28;20052;-66
2022/08/24 03:47:19;;;;;;;8.25;5.32;;;;;;;19.16;65.66;100427.13;5074559;28;20052;-66
2022/08/24 03:49:46;;;;;;;10.23;6.15;;;;;;;19.13;65.51;100414.56;5076551;28;20052;-66
2022/08/24 03:52:13;;;;;;;7.70;5.60;;;;;;;19.10;65.80;100420.97;5074785;28;20048;-67
2022/08/24 03:54:40;;;;;;;8.13;5.82;;;;;;;19.09;65.97;100422.16;5073893;28;20383;-65
2022/08/24 03:57:09;;;;;;;7.18;5.97;;;;;;;19.06;65.92;100426.53;5094708;28;20052;-66
2022/08/24 03:59:36;;;;;;;9.50;6.10;;;;;;;19.02;66.17;100422.00;5093559;28;20056;-67
2022/08/24 04:02:04;;;;;;;9.07;6.30;;;;;;;19.01;66.31;100424.00;5076342;28;20056;-66
2022/08/24 04:04:31;;;;;;;6.72;5.93;;;;;;;19.00;66.18;100427.22;5094507;28;20056;-67
2022/08/24 04:06:59;;;;;;;6.85;5.68;;;;;;;18.98;66.11;100424.78;5077409;28;20389;-66
2022/08/24 04:09:26;;;;;;;9.05;5.95;;;;;;;18.99;66.14;100428.41;5074381;28;20405;-66
2022/08/24 04:11:54;;;;;;;8.13;6.30;;;;;;;18.97;66.30;100425.13;5073911;28;20056;-66
2022/08/24 04:14:22;;;;;;;8.43;6.20;;;;;;;18.91;66.35;100429.47;5074536;28;20056;-66
2022/08/24 04:16:50;;;;;;;9.87;6.43;;;;;;;18.89;66.45;100431.84;5073349;28;20055;-66
2022/08/24 04:19:18;;;;;;;7.63;6.00;;;;;;;18.88;66.45;100441.47;5090976;28;20476;-66
2022/08/24 04:21:45;;;;;;;9.00;6.03;;;;;;;18.86;66.05;100437.03;5083682;28;20106;-65
2022/08/24 04:24:13;;;;;;;8.05;5.80;;;;;;;18.85;66.04;100432.56;5074173;28;20494;-66
2022/08/24 04:26:42;;;;;;;7.93;5.88;;;;;;;18.82;66.02;100436.13;5073564;28;20041;-66
2022/08/24 04:29:11;;;;;;;6.07;5.32;;;;;;;18.80;66.13;100440.53;5073641;28;20484;-66
2022/08/24 04:31:41;;;;;;;6.38;5.60;;;;;;;18.76;66.10;100437.59;5073791;28;20053;-66
2022/08/24 04:34:10;;;;;;;6.82;5.60;;;;;;;18.75;66.25;100432.31;5077570;28;20048;-66
2022/08/24 04:36:37;;;;;;;7.30;5.60;;;;;;;18.74;66.33;100430.69;5088048;28;20056;-66
2022/08/24 04:39:05;;;;;;;6.68;5.65;;;;;;;18.72;66.38;100433.88;5073097;28;20063;-66
2022/08/24 04:41:32;;;;;;;10.57;6.47;;;;;;;18.73;66.35;100435.53;5073456;28;20071;-66
2022/08/24 04:43:59;;;;;;;8.10;5.80;;;;;;;18.73;66.42;100432.69;5073580;28;20056;-66
2022/08/24 04:46:28;;;;;;;7.05;5.95;;;;;;;18.73;66.69;100435.53;5073153;28;20170;-66
2022/08/24 04:48:56;;;;;;;8.32;5.85;;;;;;;18.73;66.73;100441.16;5073720;28;20067;-66
2022/08/24 04:51:24;;;;;;;7.13;5.82;;;;;;;18.69;66.97;100440.28;5073613;28;20134;-66
2022/08/24 04:53:51;;;;;;;6.63;5.95;;;;;;;18.72;67.13;100439.53;5088059;28;20382;-66
2022/08/24 04:56:22;;;;;;;9.25;6.75;;;;;;;18.72;67.75;100444.34;5093287;28;20044;-66
2022/08/24 04:58:49;;;;;;;7.90;6.57;;;;;;;18.74;67.76;100445.59;5074831;28;20404;-67
2022/08/24 05:01:19;;;;;;;7.40;6.20;;;;;;;18.76;67.65;100445.25;5073009;28;20059;-66
2022/08/24 05:03:48;;;;;;;8.77;6.63;;;;;;;18.80;67.29;100451.81;5085328;28;20048;-66
2022/08/24 05:06:18;;;;;;;7.40;6.13;;;;;;;18.80;67.30;100449.00;5092612;28;20068;-67
2022/08/24 05:08:46;;;;;;;6.88;5.95;;;;;;;18.82;66.74;100447.44;5078149;28;20462;-66
2022/08/24 05:11:14;;;;;;;8.23;6.03;;;;;;;18.92;66.45;100448.00;5072786;28;20052;-66
2022/08/24 05:13:41;;;;;;;7.20;5.20;;;;;;;19.01;66.23;100449.44;5072895;28;20072;-67
2022/08/24 05:16:10;;;;;;;6.32;4.90;;;;;;;19.05;65.30;100455.16;5072759;28;20051;-66
2022/08/24 05:18:39;;;;;;;6.75;4.90;;;;;;;19.00;64.65;100456.28;5073332;28;20076;-66
2022/08/24 05:21:07;;;;;;;6.93;4.75;;;;;;;19.06;64.43;100453.94;5076777;28;20048;-66
2022/08/24 05:23:36;;;;;;;6.18;4.82;;;;;;;19.13;64.23;100458.91;5074298;28;20087;-66
2022/08/24 05:26:06;;;;;;;5.60;5.10;;;;;;;19.17;64.15;100462.63;5072128;28;20067;-66
2022/08/24 05:28:34;;;;;;;7.40;5.07;;;;;;;19.19;64.54;100454.59;5072679;28;20512;-67
2022/08/24 05:31:10;;;;;;;9.18;5.15;;;;;;;19.27;64.16;100462.81;5072466;28;20454;-66
2022/08/24 05:33:38;;;;;;;5.00;4.50;;;;;;;19.32;64.12;100464.56;5080195;28;20060;-65
2022/08/24 05:36:06;;;;;;;7.95;5.70;;;;;;;19.42;64.12;100463.09;5082959;28;20052;-66
2022/08/24 05:38:34;;;;;;;5.53;4.88;;;;;;;19.50;64.16;100466.88;5062150;28;20413;-67
2022/08/24 05:41:05;;;;;;;5.72;5.13;;;;;;;19.58;64.16;100468.66;5067326;28;20049;-66
2022/08/24 05:43:33;;;;;;;8.52;5.57;;;;;;;19.64;64.61;100472.81;5062794;28;20056;-49
2022/08/24 05:46:00;;;;;;;7.25;5.25;;;;;;;19.77;64.67;100477.09;5076708;28;20060;-48
2022/08/24 05:48:27;;;;;;;10.20;4.93;;;;;;;19.87;64.00;100476.47;5067864;28;20059;-48
2022/08/24 05:50:56;;;;;;;5.85;5.00;;;;;;;20.00;63.14;100471.44;5071482;28;20057;-48
2022/08/24 05:53:23;;;;;;;7.53;5.50;;;;;;;19.92;63.34;100474.53;5070758;28;20056;-47
2022/08/24 05:55:51;;;;;;;8.73;5.82;;;;;;;20.02;63.15;100477.53;5070987;28;20052;-50
2022/08/24 05:58:20;;;;;;;11.30;6.38;;;;;;;20.19;62.66;100467.69;5069987;28;20059;-48
2022/08/24 06:00:49;;;;;;;6.70;5.63;;;;;;;20.29;62.43;100474.72;5080485;28;20143;-48
2022/08/24 06:03:16;;;;;;;9.07;4.97;;;;;;;20.40;62.03;100470.03;5090007;28;20048;-51
2022/08/24 06:05:47;;;;;;;8.20;5.85;;;;;;;20.39;62.21;100468.41;5076863;28;20394;-51
2022/08/24 06:08:15;;;;;;;7.75;5.15;;;;;;;20.52;62.02;100469.00;5088424;28;20047;-50
2022/08/24 06:10:46;;;;;;;9.02;5.60;;;;;;;20.71;61.59;100472.94;5077710;28;20056;-49
2022/08/24 06:13:14;;;;;;;9.82;6.68;;;;;;;20.85;61.21;100475.91;5071781;28;20055;-49
2022/08/24 06:15:43;;;;;;;11.90;6.65;;;;;;;21.01;60.83;100476.53;5072303;28;20052;-51
2022/08/24 06:18:11;;;;;;;8.38;6.05;;;;;;;21.17;60.74;100478.34;5069570;28;20052;-48
2022/08/24 06:20:41;;;;;;;9.00;5.57;;;;;;;21.21;60.62;100479.22;5080774;28;20682;-49
2022/08/24 06:23:09;;;;;;;6.72;5.97;;;;;;;21.36;60.04;100483.84;5071295;28;20052;-49
2022/08/24 06:28:24;;;;;;;8.98;6.07;;;;;;;21.66;59.51;100486.59;5073453;28;20052;-63
2022/08/24 06:31:03;;;;;;;9.43;6.22;;;;;;;21.84;58.58;100485.97;5067605;28;20060;-62
2022/08/24 06:33:30;;;;;;;7.55;6.10;;;;;;;21.95;57.91;100483.22;5075819;28;20052;-62
2022/08/24 06:35:58;;;;;;;6.50;5.90;;;;;;;22.08;58.16;100493.84;5077138;28;20071;-62
2022/08/24 06:38:25;;;;;;;7.35;5.55;;;;;;;22.17;57.45;100490.69;5078572;28;20052;-62
2022/08/24 06:40:52;;;;;;;7.60;5.90;;;;;;;22.35;57.37;100492.88;5074161;28;20056;-62
2022/08/24 06:43:20;;;;;;;5.72;5.22;;;;;;;22.48;56.87;100485.66;5084167;28;20489;-62
2022/08/24 06:45:47;;;;;;;7.82;6.20;;;;;;;22.63;56.56;100489.41;5073521;28;20071;-62
2022/08/24 06:48:16;;;;;;;13.45;6.22;;;;;;;22.78;55.13;100491.09;5076081;28;20044;-62
2022/08/24 06:50:44;;;;;;;14.90;6.32;;;;;;;22.92;54.43;100496.06;5076817;28;20508;-62
2022/08/24 06:53:13;;;;;;;8.18;5.13;;;;;;;23.07;53.72;100492.06;5090846;28;20052;-62
2022/08/24 06:55:44;;;;;;;;;;;;;;;23.18;53.28;100497.00;5097593;28;20059;-62
2022/08/24 06:58:11;;;;;;;7.10;4.60;;;;;;;23.27;52.75;100488.94;5078148;28;19927;-62
2022/08/24 07:00:38;;;;;;;6.97;4.22;;;;;;;23.38;51.99;100491.78;5078329;28;20064;-63
2022/08/24 07:03:06;;;;;;;9.02;4.70;;;;;;;23.55;50.86;100493.84;5078148;28;20481;-62
2022/08/24 07:05:34;;;;;;;6.93;3.42;;;;;;;23.71;49.47;100493.50;5078597;28;20056;-62
2022/08/24 07:08:02;;;;;;;6.25;3.75;;;;;;;23.85;48.56;100493.50;5079045;28;20052;-63
2022/08/24 07:10:29;;;;;;;8.90;3.97;;;;;;;24.04;48.18;100497.19;5078280;28;20052;-62
2022/08/24 07:12:57;;;;;;;10.13;4.43;;;;;;;24.19;48.90;100501.69;5078348;28;20056;-63
2022/08/24 07:15:26;;;;;;;6.07;4.13;;;;;;;24.34;49.25;100496.78;5078107;28;20048;-63
2022/08/24 07:17:53;;;;;;;7.72;4.10;;;;;;;24.54;48.52;100502.06;5077722;28;20485;-63
2022/08/24 07:20:20;;;;;;;6.13;3.80;;;;;;;24.63;47.99;100503.28;5077688;28;20057;-62
2022/08/24 07:22:49;;;;;;;8.23;3.67;;;;;;;24.81;46.22;100505.25;5084113;28;20060;-62
2022/08/24 07:25:17;;;;;;;5.70;4.07;;;;;;;25.03;46.09;100505.97;5098246;28;20408;-63
2022/08/24 07:27:44;;;;;;;10.68;4.18;;;;;;;25.39;45.68;100503.81;5087839;28;20056;-63
2022/08/24 07:30:12;;;;;;;5.13;3.55;;;;;;;26.09;44.67;100508.69;5077609;28;20063;-62
2022/08/24 07:32:39;;;;;;;4.50;3.30;;;;;;;27.14;42.77;100492.88;5078095;28;20044;-63
2022/08/24 07:35:07;;;;;;;9.93;4.10;;;;;;;28.18;40.29;100509.81;5074512;28;20049;-63
2022/08/24 07:37:34;;;;;;;9.60;3.53;;;;;;;29.34;37.97;100508.03;5078026;28;20044;-63
2022/08/24 07:40:04;;;;;;;4.45;3.05;;;;;;;30.51;35.89;100507.69;5094762;28;20056;-63
2022/08/24 07:42:31;;;;;;;6.03;3.42;;;;;;;31.72;33.83;100496.81;5090919;28;20044;-63
2022/08/24 07:44:59;;;;;;;4.45;2.80;;;;;;;32.87;31.95;100502.38;5074650;28;20064;-63
2022/08/24 07:47:26;;;;;;;10.70;3.10;;;;;;;33.88;29.79;100498.53;5073689;28;20059;-63
2022/08/24 07:49:54;;;;;;;4.97;2.67;;;;;;;34.89;28.57;100495.81;5074446;28;20076;-63
2022/08/24 07:52:21;;;;;;;4.13;2.67;;;;;;;35.94;26.43;100491.69;5084670;28;20052;-63
2022/08/24 07:54:48;;;;;;;5.97;3.10;;;;;;;36.89;24.95;100492.19;5074537;28;20060;-64
2022/08/24 07:57:17;;;;;;;8.70;3.30;;;;;;;37.87;23.61;100500.84;5074401;28;20051;-64
2022/08/24 07:59:45;;;;;;;6.80;2.50;;;;;;;38.78;22.68;100497.88;5074299;28;20055;-64
2022/08/24 08:02:13;;;;;;;4.13;2.50;;;;;;;39.72;21.62;100494.84;5072845;28;20055;-63
2022/08/24 08:04:41;;;;;;;3.88;2.72;;;;;;;40.45;20.08;100494.56;5069616;28;20052;-64
2022/08/24 08:07:09;;;;;;;5.70;2.58;;;;;;;41.11;19.24;100498.22;5074317;28;20072;-64
2022/08/24 08:09:37;;;;;;;4.75;2.33;;;;;;;41.74;18.94;100494.84;5073914;28;20071;-64
2022/08/24 08:12:05;;;;;;;7.15;2.58;;;;;;;41.95;18.66;100495.34;5074430;28;20055;-64
2022/08/24 08:14:34;;;;;;;5.85;2.67;;;;;;;42.80;18.21;100498.03;5075359;28;20048;-64
2022/08/24 08:17:01;;;;;;;6.15;2.72;;;;;;;43.13;17.69;100499.94;5094640;28;20055;-64
2022/08/24 08:19:29;;;;;;;18.48;3.50;;;;;;;43.66;16.94;100501.97;5084269;28;20477;-64
2022/08/24 08:24:42;;;;;;;3.72;2.58;;;;;;;44.55;15.81;100502.41;5079945;28;20064;-64
2022/08/24 08:27:10;;;;;;;3.92;2.80;;;;;;;45.24;15.73;100500.09;5074050;28;20052;-64
2022/08/24 08:29:40;;;;;;;6.05;2.50;;;;;;;45.63;15.03;100504.56;5073832;28;20436;-64
2022/08/24 08:32:10;;;;;;;4.43;2.13;;;;;;;46.29;14.04;100501.72;5074225;28;20480;-64
2022/08/24 08:34:38;;;;;;;5.30;2.30;;;;;;;46.42;14.59;100500.16;5079800;28;20051;-64
2022/08/24 08:37:06;;;;;;;4.75;2.53;;;;;;;46.68;14.33;100503.06;5073861;28;20417;-64
2022/08/24 08:39:33;;;;;;;5.18;2.28;;;;;;;46.94;13.88;100510.31;5073204;28;20508;-63
2022/08/24 08:42:37;;;;;;;5.13;2.33;;;;;;;47.52;13.31;100508.34;5074055;28;20048;-64
2022/08/24 08:45:40;;;;;;;3.63;2.58;;;;;;;47.69;12.62;100507.94;5073224;28;20052;-64
2022/08/24 08:48:31;;;;;;;3.72;2.47;;;;;;;48.16;12.32;100504.78;5032855;28;20365;-64
2022/08/24 08:51:22;;;;;;;3.58;2.05;;;;;;;48.54;12.01;100506.41;5079308;28;20493;-63
2022/08/24 08:54:13;;;;;;;5.40;2.78;;;;;;;48.72;12.24;100498.63;5073245;28;20048;-62
2022/08/24 08:56:54;;;;;;;3.63;2.63;;;;;;;48.74;11.47;100496.69;5073206;28;20481;-64
2022/08/24 08:59:38;;;;;;;8.00;2.45;;;;;;;48.93;11.82;100492.56;5073007;28;20044;-62
2022/08/24 09:02:22;;;;;;;5.88;2.60;;;;;;;49.31;11.41;100494.84;5080784;28;20369;-62
2022/08/24 09:05:28;;;;;;;6.72;2.20;;;;;;;49.99;10.84;100498.47;5092810;28;20055;-64
2022/08/24 09:08:07;;;;;;;6.05;2.30;;;;;;;50.06;10.77;100492.56;5072929;28;20053;-62
2022/08/24 09:10:54;;;;;;;4.75;2.40;;;;;;;50.17;10.27;100494.31;5072653;28;20060;-62
2022/08/24 09:13:30;;;;;;;;;;;;;;;49.69;11.39;100491.16;5072932;28;20056;-62
2022/08/24 09:16:24;;;;;;;3.53;2.40;;;;;;;49.70;10.77;100484.66;5070847;28;19920;-62
2022/08/24 09:19:12;;;;;;;6.50;2.30;;;;;;;50.65;10.98;100490.63;5091066;28;20130;-62
2022/08/24 09:21:54;;;;;;;5.05;3.13;;;;;;;50.57;10.65;100484.72;5072581;28;20064;-62
2022/08/24 09:24:54;;;;;;;3.70;2.28;;;;;;;50.99;10.50;100478.19;5072268;28;20485;-62
2022/08/24 09:27:39;;;;;;;3.15;2.00;;;;;;;51.51;10.66;100480.66;5067128;28;20063;-64
2022/08/24 09:30:12;;;;;;;4.00;2.20;;;;;;;52.13;10.02;100493.56;5081815;28;20051;-62
2022/08/24 09:32:58;;;;;;;3.15;2.08;;;;;;;52.06;10.31;100490.63;5076181;28;20401;-62
2022/08/24 09:35:34;;;;;;;4.05;2.30;;;;;;;52.24;10.34;100491.47;5072060;28;20068;-62
2022/08/24 09:38:15;;;;;;;3.77;2.20;;;;;;;52.51;9.66;100479.69;5070593;28;20056;-62
2022/08/24 09:41:00;;;;;;;6.00;2.25;;;;;;;52.67;9.67;100487.00;5072625;28;20052;-62
2022/08/24 09:44:07;;;;;;;5.03;2.47;;;;;;;52.43;9.72;100487.88;5074879;28;20052;-62
2022/08/24 09:47:07;;;;;;;3.97;2.40;;;;;;;52.55;9.71;100485.97;5077513;28;20052;-62
2022/08/24 09:49:59;;;;;;;5.60;2.25;;;;;;;52.73;9.62;100481.53;5072432;28;20480;-62
2022/08/24 09:53:08;;;;;;;3.35;2.20;;;;;;;52.65;9.71;100483.88;5072078;28;20052;-62
2022/08/24 09:56:10;;;;;;;3.83;2.00;;;;;;;53.22;9.40;100481.91;5071911;28;20048;-62
2022/08/24 09:58:53;;;;;;;4.60;2.40;;;;;;;53.50;9.48;100489.38;5025318;28;20053;-62
2022/08/24 10:01:28;;;;;;;3.50;2.40;;;;;;;53.45;9.39;100487.47;5074363;28;20052;-62
2022/08/24 10:04:10;;;;;;;5.40;2.17;;;;;;;53.49;9.15;100475.91;5077810;28;20059;-62
2022/08/24 10:06:50;;;;;;;3.50;2.35;;;;;;;53.86;9.07;100469.91;5090984;28;20066;-63
2022/08/24 10:09:45;;;;;;;2.50;2.30;;;;;;;54.32;8.26;100469.03;5074945;28;20043;-63
2022/08/24 10:12:24;;;;;;;5.10;2.90;;;;;;;54.12;8.37;100467.44;5091061;28;20052;-63
2022/08/24 10:14:58;;;;;;;5.25;2.50;;;;;;;54.01;8.54;100453.91;5072357;28;20053;-64
2022/08/24 10:17:41;;;;;;;5.63;2.40;;;;;;;53.90;9.11;100461.28;5072041;28;20496;-63
2022/08/24 10:20:19;;;;;;;4.00;2.53;;;;;;;54.00;9.08;100452.38;5072147;28;20412;-63
2022/08/24 10:23:17;;;;;;;3.03;2.13;;;;;;;53.95;8.38;100451.28;5070857;28;20053;-63
2022/08/24 10:25:53;;;;;;;5.70;2.67;;;;;;;53.37;9.00;100456.25;5052224;28;20060;-63
2022/08/24 10:29:00;;;;;;;3.53;2.30;;;;;;;54.18;8.46;100444.06;5058462;28;20390;-63
2022/08/24 10:31:36;;;;;;;2.60;2.38;;;;;;;54.59;8.69;100443.44;5032028;28;20486;-63
2022/08/24 10:34:17;;;;;;;3.08;2.30;;;;;;;54.19;8.84;100444.88;5071906;28;20057;-63
2022/08/24 10:37:20;;;;;;;2.55;2.13;;;;;;;54.35;8.68;100437.94;5072192;28;20052;-63
2022/08/24 10:40:12;;;;;;;3.28;2.40;;;;;;;54.87;7.72;100429.88;5048293;28;20067;-63
2022/08/24 10:43:34;;;;;;;3.33;2.55;;;;;;;54.13;8.45;100437.00;5051322;28;20068;-63
2022/08/24 10:46:37;;;;;;;6.70;2.83;;;;;;;54.89;7.87;100439.75;5051795;28;20061;-64
2022/08/24 10:49:41;;;;;;;4.15;2.88;;;;;;;54.77;8.17;100426.09;5054148;28;20049;-63
2022/08/24 10:52:53;;;;;;;5.03;2.67;;;;;;;54.93;7.92;100424.34;5071925;28;20401;-64
2022/08/24 10:55:23;;;;;;;3.55;2.40;;;;;;;54.41;8.31;100421.94;5066064;28;20067;-62
2022/08/24 10:58:29;;;;;;;4.00;2.50;;;;;;;53.85;8.64;100417.69;5091043;28;20052;-63
2022/08/24 11:01:12;;;;;;;;;;;;;;;54.16;8.52;100423.03;5071998;28;20045;-63
2022/08/24 11:03:50;;;;;;;5.63;2.47;;;;;;;54.37;8.13;100418.63;5071378;28;19932;-63
2022/08/24 11:06:18;;;;;;;5.57;2.63;;;;;;;54.12;8.34;100419.75;5071471;28;20056;-64
2022/08/24 11:08:54;;;;;;;7.13;2.40;;;;;;;54.34;8.56;100414.72;5071186;28;20051;-62
2022/08/24 11:11:30;;;;;;;4.22;2.50;;;;;;;54.08;8.59;100417.22;5082737;28;20063;-62
2022/08/24 11:13:59;;;;;;;;;;;;;;;53.47;8.81;100413.22;5090884;28;20052;-62
2022/08/24 11:16:33;;;;;;;3.33;2.35;;;;;;;53.31;8.93;100418.63;5092640;28;19927;-62
2022/08/24 11:19:05;;;;;;;9.43;3.05;;;;;;;53.05;9.29;100414.28;5092431;28;20427;-63
2022/08/24 11:21:40;;;;;;;5.05;2.40;;;;;;;53.82;8.98;100409.22;5055125;28;20393;-62
2022/08/24 11:24:11;;;;;;;6.70;2.60;;;;;;;54.25;8.61;100409.56;5055167;28;20048;-63
2022/08/24 11:26:51;;;;;;;4.70;2.38;;;;;;;54.18;8.60;100404.53;5074908;28;20052;-63
2022/08/24 11:29:19;;;;;;;3.15;2.40;;;;;;;54.14;8.52;100405.00;5081869;28;20381;-63
2022/08/24 11:31:49;;;;;;;8.20;2.58;;;;;;;53.79;8.30;100402.31;5086261;28;20063;-62
2022/08/24 11:34:30;;;;;;;4.88;2.65;;;;;;;54.52;8.10;100403.41;5095151;28;20056;-62
2022/08/24 11:36:58;;;;;;;7.05;2.60;;;;;;;54.83;7.75;100399.72;5075015;28;20049;-63
2022/08/24 11:39:29;;;;;;;4.15;2.03;;;;;;;55.05;8.11;100401.38;5083293;28;20051;-62
2022/08/24 11:42:01;;;;;;;4.20;2.00;;;;;;;53.74;8.49;100404.16;5088637;28;20047;-63
2022/08/24 11:44:42;;;;;;;5.32;2.35;;;;;;;52.05;9.20;100400.72;5094897;28;20052;-63
2022/08/24 11:47:31;;;;;;;4.68;2.97;;;;;;;52.32;9.01;100397.03;5076334;28;20048;-62
2022/08/24 11:50:08;;;;;;;3.90;2.63;;;;;;;52.25;9.70;100404.66;5054725;28;20045;-60
2022/08/24 11:52:44;;;;;;;;;;;;;;;52.59;9.19;100408.19;5055199;28;20052;-62
2022/08/24 11:55:17;;;;;;;6.63;2.53;;;;;;;53.48;8.53;100396.91;5074862;28;20367;-62
2022/08/24 11:57:54;;;;;;;3.53;2.75;;;;;;;53.68;8.49;100393.94;5074384;28;20064;-63
2022/08/24 12:00:23;;;;;;;;;;;;;;;53.21;8.74;100391.00;5074560;28;20052;-62
2022/08/24 12:03:01;;;;;;;4.65;2.38;;;;;;;53.15;8.77;100387.53;5074236;28;19924;-63